Time;durP1;ratioP1;P1;durP2;ratioP2;P2;SDS_P1;SDS_P2;PMS_P1;PMS_P2;Temp;Humidity;BMP_temperature;BMP_pressure;BME280_temperature;BME280_humidity;BME280_pressure;Samples;Min_cycle;Max_cycle;Signal;HPM_P1;HPM_P2
2023/12/07 00:01:58;;;;;;;12.55;6.95;;;;;;;;;;5116746;23;21146;-61
2023/12/07 00:04:59;;;;;;;12.68;6.68;;;;;;;;;;4990912;28;20428;-59
2023/12/07 00:07:26;;;;;;;11.63;6.50;;;;;;;;;;4995779;28;20069;-61
2023/12/07 00:10:00;;;;;;;11.57;6.10;;;;;;;;;;4997766;28;20140;-59
2023/12/07 00:12:28;;;;;;;14.32;7.10;;;;;;;;;;4994641;28;20535;-59
2023/12/07 00:15:21;;;;;;;11.60;6.82;;;;;;;;;;4995105;28;20084;-59
2023/12/07 00:18:03;;;;;;;10.27;6.32;;;;;;;;;;4997678;28;20099;-59
2023/12/07 00:20:37;;;;;;;11.45;6.50;;;;;;;;;;4996448;28;20057;-60
2023/12/07 00:23:04;;;;;;;11.77;6.63;;;;;;;;;;4996051;28;20057;-58
2023/12/07 00:25:32;;;;;;;;;;;;;;;;;;4998865;28;20053;-61
2023/12/07 00:28:05;;;;;;;10.40;5.50;;;;;;;;;;5003305;28;19968;-60
2023/12/07 00:30:33;;;;;;;10.43;5.65;;;;;;;;;;4991497;28;20054;-61
2023/12/07 00:33:01;;;;;;;11.63;6.10;;;;;;;;;;4984215;28;20583;-61
2023/12/07 00:35:35;;;;;;;12.02;6.20;;;;;;;;;;5000028;28;20112;-57
2023/12/07 00:38:21;;;;;;;12.88;6.53;;;;;;;;;;4997669;28;20123;-71
2023/12/07 00:41:15;;;;;;;11.27;6.10;;;;;;;;;;4999359;28;20060;-71
2023/12/07 00:44:02;;;;;;;12.90;5.97;;;;;;;;;;4999825;28;20468;-71
2023/12/07 00:46:56;;;;;;;12.20;6.13;;;;;;;;;;5001621;28;20057;-71
2023/12/07 00:49:43;;;;;;;10.95;5.88;;;;;;;;;;4999872;28;20053;-71
2023/12/07 00:52:37;;;;;;;14.40;6.90;;;;;;;;;;5001175;28;20131;-72
2023/12/07 00:55:24;;;;;;;12.27;6.53;;;;;;;;;;5002085;28;20057;-59
2023/12/07 00:58:18;;;;;;;14.45;6.10;;;;;;;;;;5002229;28;20047;-71
2023/12/07 01:01:06;;;;;;;11.05;6.95;;;;;;;;;;5001972;28;20118;-71
2023/12/07 01:04:06;;;;;;;11.20;6.03;;;;;;;;;;4975431;28;20145;-72
2023/12/07 01:06:53;;;;;;;9.57;5.95;;;;;;;;;;4979667;28;20485;-71
2023/12/07 01:09:47;;;;;;;13.37;6.83;;;;;;;;;;4985889;28;20058;-71
2023/12/07 01:12:35;;;;;;;9.75;5.97;;;;;;;;;;4985989;28;20054;-48
2023/12/07 01:15:28;;;;;;;11.98;6.70;;;;;;;;;;4980318;28;20059;-57
2023/12/07 01:18:16;;;;;;;14.00;6.57;;;;;;;;;;4981298;28;20054;-58
2023/12/07 01:21:09;;;;;;;10.05;5.80;;;;;;;;;;4985034;28;20046;-57
2023/12/07 01:23:58;;;;;;;12.13;6.28;;;;;;;;;;4979334;28;20539;-57
2023/12/07 01:26:52;;;;;;;14.90;6.18;;;;;;;;;;4980919;28;20073;-57
2023/12/07 01:29:39;;;;;;;10.43;5.72;;;;;;;;;;4980441;28;20050;-59
2023/12/07 01:32:32;;;;;;;10.85;5.15;;;;;;;;;;4979050;28;20070;-55
2023/12/07 01:35:20;;;;;;;10.85;6.00;;;;;;;;;;4979801;28;20054;-51
2023/12/07 01:38:15;;;;;;;9.73;5.38;;;;;;;;;;4982450;28;20521;-48
2023/12/07 01:41:02;;;;;;;8.77;5.22;;;;;;;;;;4982602;28;20097;-51
2023/12/07 01:43:57;;;;;;;11.20;5.60;;;;;;;;;;4980106;28;20051;-50
2023/12/07 01:46:44;;;;;;;10.25;5.78;;;;;;;;;;4982003;28;20231;-52
2023/12/07 01:49:39;;;;;;;9.90;5.78;;;;;;;;;;4981180;28;20141;-58
2023/12/07 01:52:42;;;;;;;10.40;6.07;;;;;;;;;;4980417;28;20122;-70
2023/12/07 01:55:37;;;;;;;12.45;6.05;;;;;;;;;;4984612;28;20047;-71
2023/12/07 01:58:31;;;;;;;10.60;6.03;;;;;;;;;;4986245;28;20089;-68
2023/12/07 02:01:19;;;;;;;10.32;5.20;;;;;;;;;;4984023;28;20054;-71
2023/12/07 02:04:21;;;;;;;9.13;5.22;;;;;;;;;;4978660;28;20436;-71
2023/12/07 02:07:09;;;;;;;9.13;5.03;;;;;;;;;;4980666;28;20058;-57
2023/12/07 02:10:03;;;;;;;10.23;6.05;;;;;;;;;;4981875;28;20516;-52
2023/12/07 02:12:56;;;;;;;11.85;5.90;;;;;;;;;;4984718;28;20077;-53
2023/12/07 02:15:44;;;;;;;10.43;5.95;;;;;;;;;;4979290;28;20054;-49
2023/12/07 02:18:45;;;;;;;12.25;6.15;;;;;;;;;;4982200;28;20536;-52
2023/12/07 02:21:37;;;;;;;10.80;5.65;;;;;;;;;;4978933;28;20061;-50
2023/12/07 02:24:34;;;;;;;12.07;5.28;;;;;;;;;;4981467;28;20054;-50
2023/12/07 02:27:43;;;;;;;12.10;4.95;;;;;;;;;;4978670;28;20054;-60
2023/12/07 02:30:37;;;;;;;8.82;5.43;;;;;;;;;;4977191;28;20060;-59
2023/12/07 02:33:24;;;;;;;9.80;5.22;;;;;;;;;;4979783;28;20051;-61
2023/12/07 02:36:21;;;;;;;11.82;5.50;;;;;;;;;;4979583;28;20106;-60
2023/12/07 02:39:09;;;;;;;8.63;5.30;;;;;;;;;;4987568;28;20047;-57
2023/12/07 02:42:05;;;;;;;9.10;5.35;;;;;;;;;;4983974;28;20120;-59
2023/12/07 02:44:53;;;;;;;7.35;4.40;;;;;;;;;;4985238;28;20054;-56
2023/12/07 02:47:48;;;;;;;9.80;5.05;;;;;;;;;;4985217;28;20050;-57
2023/12/07 02:50:35;;;;;;;9.17;5.27;;;;;;;;;;4980974;28;20054;-60
2023/12/07 02:53:33;;;;;;;9.60;5.75;;;;;;;;;;4979695;28;20692;-59
2023/12/07 02:56:21;;;;;;;11.88;5.43;;;;;;;;;;4978678;28;20137;-49
2023/12/07 02:59:14;;;;;;;9.15;5.00;;;;;;;;;;4979500;28;20054;-51
2023/12/07 03:02:02;;;;;;;7.28;4.88;;;;;;;;;;4976535;28;20058;-51
2023/12/07 03:05:02;;;;;;;10.73;5.40;;;;;;;;;;4978583;28;20459;-66
2023/12/07 03:07:49;;;;;;;7.95;5.03;;;;;;;;;;4981351;28;20317;-70
2023/12/07 03:10:43;;;;;;;8.30;5.10;;;;;;;;;;4982435;28;20489;-71
2023/12/07 03:13:30;;;;;;;8.68;4.55;;;;;;;;;;4983175;28;20062;-70
2023/12/07 03:16:25;;;;;;;11.20;5.32;;;;;;;;;;4983696;28;20053;-71
2023/12/07 03:19:12;;;;;;;9.15;4.95;;;;;;;;;;4975932;28;20468;-70
2023/12/07 03:22:06;;;;;;;8.48;4.60;;;;;;;;;;4983377;28;20412;-70
2023/12/07 03:24:54;;;;;;;8.45;4.95;;;;;;;;;;4980271;28;20058;-70
2023/12/07 03:27:48;;;;;;;8.80;4.63;;;;;;;;;;4976875;28;20058;-70
2023/12/07 03:30:35;;;;;;;11.05;5.10;;;;;;;;;;4979835;28;20045;-70
2023/12/07 03:33:28;;;;;;;10.88;5.20;;;;;;;;;;4978637;28;20093;-66
2023/12/07 03:36:16;;;;;;;9.68;4.65;;;;;;;;;;4979601;28;20077;-52
2023/12/07 03:39:09;;;;;;;12.63;5.43;;;;;;;;;;4980115;28;20066;-54
2023/12/07 03:41:57;;;;;;;11.02;5.63;;;;;;;;;;4979318;28;20058;-49
2023/12/07 03:45:11;;;;;;;9.65;5.13;;;;;;;;;;4979640;28;20684;-49
2023/12/07 03:47:59;;;;;;;10.68;5.20;;;;;;;;;;4979316;28;20054;-52
2023/12/07 03:50:53;;;;;;;9.93;4.78;;;;;;;;;;4978568;28;20050;-51
2023/12/07 03:53:40;;;;;;;9.10;4.97;;;;;;;;;;4979063;28;20132;-52
2023/12/07 03:56:35;;;;;;;9.90;5.20;;;;;;;;;;4979075;28;20298;-54
2023/12/07 03:59:22;;;;;;;8.77;4.88;;;;;;;;;;4979281;28;20098;-54
2023/12/07 04:02:22;;;;;;;8.85;4.57;;;;;;;;;;4974916;28;20137;-59
2023/12/07 04:05:16;;;;;;;8.82;4.75;;;;;;;;;;4981061;28;20050;-61
2023/12/07 04:08:09;;;;;;;9.75;5.20;;;;;;;;;;4980304;28;20054;-60
2023/12/07 04:10:57;;;;;;;10.02;5.22;;;;;;;;;;4983420;28;20058;-60
2023/12/07 04:13:50;;;;;;;8.55;5.05;;;;;;;;;;4980825;28;20058;-61
2023/12/07 04:16:38;;;;;;;9.88;5.40;;;;;;;;;;4983978;28;20469;-61
2023/12/07 04:19:31;;;;;;;12.38;5.07;;;;;;;;;;4981115;28;20058;-70
2023/12/07 04:22:19;;;;;;;12.00;5.28;;;;;;;;;;4978925;28;20531;-71
2023/12/07 04:25:13;;;;;;;14.55;5.57;;;;;;;;;;4976367;28;20054;-70
2023/12/07 04:28:00;;;;;;;10.00;5.32;;;;;;;;;;4979814;28;20065;-71
2023/12/07 04:30:54;;;;;;;9.30;4.97;;;;;;;;;;4978147;28;20051;-60
2023/12/07 04:33:41;;;;;;;9.65;5.15;;;;;;;;;;4978892;28;20050;-66
2023/12/07 04:36:35;;;;;;;8.90;4.93;;;;;;;;;;4974556;28;20145;-67
2023/12/07 04:39:22;;;;;;;12.27;5.07;;;;;;;;;;4978710;28;20133;-67
2023/12/07 04:42:15;;;;;;;9.38;4.90;;;;;;;;;;4979440;28;20061;-66
2023/12/07 04:45:03;;;;;;;6.13;3.57;;;;;;;;;;4980375;28;20095;-67
2023/12/07 04:47:57;;;;;;;8.60;4.57;;;;;;;;;;4982881;28;20570;-60
2023/12/07 04:50:45;;;;;;;9.85;5.35;;;;;;;;;;4979832;28;20050;-59
2023/12/07 04:53:40;;;;;;;8.63;4.90;;;;;;;;;;4978203;28;20050;-58
2023/12/07 04:56:42;;;;;;;7.05;4.18;;;;;;;;;;4979511;28;20148;-60
2023/12/07 04:59:37;;;;;;;8.27;4.40;;;;;;;;;;4982724;28;20604;-67
2023/12/07 05:02:30;;;;;;;7.95;4.63;;;;;;;;;;4973264;28;20085;-62
2023/12/07 05:05:24;;;;;;;11.35;5.10;;;;;;;;;;4983753;28;20060;-60
2023/12/07 05:08:12;;;;;;;7.72;4.55;;;;;;;;;;4983256;28;20049;-61
2023/12/07 05:11:06;;;;;;;11.30;4.25;;;;;;;;;;4987597;28;20058;-61
2023/12/07 05:13:53;;;;;;;6.90;4.10;;;;;;;;;;4987218;28;20054;-61
2023/12/07 05:16:48;;;;;;;7.97;4.60;;;;;;;;;;4989534;28;20474;-66
2023/12/07 05:19:34;;;;;;;8.35;4.28;;;;;;;;;;4982888;28;20046;-66
2023/12/07 05:22:27;;;;;;;7.22;4.10;;;;;;;;;;4981119;28;20065;-67
2023/12/07 05:25:16;;;;;;;7.85;4.35;;;;;;;;;;4980395;28;20489;-66
2023/12/07 05:28:09;;;;;;;7.38;3.78;;;;;;;;;;4979926;28;20225;-55
2023/12/07 05:30:57;;;;;;;8.18;4.70;;;;;;;;;;4982456;28;20672;-61
2023/12/07 05:33:50;;;;;;;8.05;4.10;;;;;;;;;;4976882;28;20058;-59
2023/12/07 05:36:38;;;;;;;9.40;4.47;;;;;;;;;;4984131;28;20046;-61
2023/12/07 05:39:31;;;;;;;6.43;3.83;;;;;;;;;;4982863;28;20062;-62
2023/12/07 05:42:19;;;;;;;10.07;4.75;;;;;;;;;;4978317;28;20050;-61
2023/12/07 05:45:12;;;;;;;7.93;4.78;;;;;;;;;;4982456;28;20050;-60
2023/12/07 05:48:00;;;;;;;7.85;4.10;;;;;;;;;;4977680;28;20141;-60
2023/12/07 05:50:53;;;;;;;6.80;4.43;;;;;;;;;;4977047;28;20054;-61
2023/12/07 05:53:41;;;;;;;7.32;4.00;;;;;;;;;;4979544;28;20058;-58
2023/12/07 05:56:35;;;;;;;8.65;4.13;;;;;;;;;;4980215;28;20575;-71
2023/12/07 05:59:22;;;;;;;8.05;4.40;;;;;;;;;;4975606;28;20054;-51
2023/12/07 06:01:55;;;;;;;8.77;4.85;;;;;;;;;;4973913;28;20058;-53
2023/12/07 06:04:38;;;;;;;6.35;3.80;;;;;;;;;;4986327;28;20062;-49
2023/12/07 06:07:05;;;;;;;7.05;4.57;;;;;;;;;;4982426;28;20054;-56
2023/12/07 06:09:41;;;;;;;7.85;4.05;;;;;;;;;;4984855;28;20578;-53
2023/12/07 06:12:08;;;;;;;9.20;5.43;;;;;;;;;;4982845;28;20464;-54
2023/12/07 06:14:43;;;;;;;9.52;5.50;;;;;;;;;;4981296;28;20140;-56
2023/12/07 06:17:10;;;;;;;9.43;5.38;;;;;;;;;;4981408;28;20112;-55
2023/12/07 06:19:37;;;;;;;9.10;4.95;;;;;;;;;;4978849;28;20551;-56
2023/12/07 06:22:11;;;;;;;12.65;5.03;;;;;;;;;;4977833;28;20059;-59
2023/12/07 06:24:44;;;;;;;8.68;4.93;;;;;;;;;;4984098;28;20057;-49
2023/12/07 06:27:12;;;;;;;7.05;4.53;;;;;;;;;;4981171;28;20116;-66
2023/12/07 06:29:39;;;;;;;;;;;;;;;;;;4983325;28;20559;-67
2023/12/07 06:32:15;;;;;;;8.60;4.97;;;;;;;;;;4985373;28;19921;-67
2023/12/07 06:34:43;;;;;;;8.90;5.80;;;;;;;;;;4981677;28;20292;-67
2023/12/07 06:37:17;;;;;;;8.52;5.05;;;;;;;;;;4978484;28;20511;-66
2023/12/07 06:39:45;;;;;;;10.25;5.32;;;;;;;;;;4984684;28;20054;-67
2023/12/07 06:42:12;;;;;;;;;;;;;;;;;;4982228;28;21471;-56
2023/12/07 06:44:51;;;;;;;8.07;5.13;;;;;;;;;;4978907;28;19934;-53
2023/12/07 06:47:18;;;;;;;9.30;4.93;;;;;;;;;;4981338;28;20622;-56
2023/12/07 06:49:53;;;;;;;9.30;4.82;;;;;;;;;;4980558;28;20050;-58
2023/12/07 06:52:20;;;;;;;8.35;5.20;;;;;;;;;;4984316;28;20051;-50
2023/12/07 06:54:47;;;;;;;9.20;4.90;;;;;;;;;;4979341;28;20054;-50
2023/12/07 06:57:22;;;;;;;8.98;5.28;;;;;;;;;;4978429;28;20057;-49
2023/12/07 06:59:49;;;;;;;10.15;5.47;;;;;;;;;;4983194;28;20141;-51
2023/12/07 07:02:16;;;;;;;8.25;4.63;;;;;;;;;;4979141;28;20054;-54
2023/12/07 07:04:57;;;;;;;9.85;5.13;;;;;;;;;;4981479;28;20482;-50
2023/12/07 07:07:25;;;;;;;9.95;5.40;;;;;;;;;;4980220;28;20387;-50
2023/12/07 07:09:59;;;;;;;10.70;5.70;;;;;;;;;;4980946;28;20073;-67
2023/12/07 07:12:26;;;;;;;10.35;5.28;;;;;;;;;;4981172;28;20057;-67
2023/12/07 07:14:54;;;;;;;9.80;5.20;;;;;;;;;;4976903;28;20179;-67
2023/12/07 07:17:29;;;;;;;9.25;5.60;;;;;;;;;;4980218;28;20414;-67
2023/12/07 07:19:56;;;;;;;10.75;5.60;;;;;;;;;;4982423;28;20192;-62
2023/12/07 07:22:29;;;;;;;11.40;5.65;;;;;;;;;;4981735;28;20058;-50
2023/12/07 07:24:57;;;;;;;9.75;5.72;;;;;;;;;;4981599;28;20516;-58
2023/12/07 07:27:24;;;;;;;11.50;5.22;;;;;;;;;;4980560;28;20077;-58
2023/12/07 07:29:58;;;;;;;10.93;5.28;;;;;;;;;;4983513;28;20530;-55
2023/12/07 07:32:25;;;;;;;;;;;;;;;;;;4980759;28;20061;-59
2023/12/07 07:34:59;;;;;;;7.22;4.95;;;;;;;;;;4977564;28;21088;-56
2023/12/07 07:37:27;;;;;;;;;;;;;;;;;;4975723;28;20525;-59
2023/12/07 07:39:54;;;;;;;9.40;5.40;;;;;;;;;;4977491;28;20455;-61
2023/12/07 07:42:28;;;;;;;9.50;5.15;;;;;;;;;;4978345;28;20062;-61
2023/12/07 07:44:56;;;;;;;;;;;;;;;;;;4976495;28;20513;-61
2023/12/07 07:47:23;;;;;;;8.40;4.97;;;;;;;;;;4980385;28;20344;-62
2023/12/07 07:49:58;;;;;;;8.50;4.93;;;;;;;;;;4978772;28;20050;-56
2023/12/07 07:52:25;;;;;;;10.60;5.10;;;;;;;;;;4978669;28;20137;-61
2023/12/07 07:55:02;;;;;;;8.45;5.25;;;;;;;;;;4976948;28;20067;-61
2023/12/07 07:57:30;;;;;;;8.07;5.05;;;;;;;;;;4981065;28;20461;-61
2023/12/07 07:59:58;;;;;;;12.20;5.78;;;;;;;;;;4979226;28;20916;-61
2023/12/07 08:02:44;;;;;;;10.70;5.75;;;;;;;;;;4983816;28;20050;-61
2023/12/07 08:05:18;;;;;;;9.55;6.10;;;;;;;;;;4961713;28;20061;-60
2023/12/07 08:07:53;;;;;;;10.15;5.88;;;;;;;;;;4960223;28;20482;-58
2023/12/07 08:10:20;;;;;;;12.38;6.35;;;;;;;;;;4961555;28;20054;-55
2023/12/07 08:12:47;;;;;;;11.75;5.75;;;;;;;;;;4962607;28;20069;-58
2023/12/07 08:15:21;;;;;;;10.90;6.20;;;;;;;;;;4962081;28;20063;-55
2023/12/07 08:17:50;;;;;;;;;;;;;;;;;;4961665;28;20122;-70
2023/12/07 08:20:17;;;;;;;12.75;6.20;;;;;;;;;;4962941;28;19930;-59
2023/12/07 08:22:51;;;;;;;13.00;6.25;;;;;;;;;;4956515;28;20058;-59
2023/12/07 08:25:19;;;;;;;10.32;6.03;;;;;;;;;;4964054;28;20059;-58
2023/12/07 08:27:52;;;;;;;11.45;5.65;;;;;;;;;;4962077;28;20406;-59
2023/12/07 08:30:20;;;;;;;8.40;5.32;;;;;;;;;;4959209;28;20842;-58
2023/12/07 08:32:47;;;;;;;10.07;5.53;;;;;;;;;;4960013;28;20548;-59
2023/12/07 08:35:21;;;;;;;11.20;5.93;;;;;;;;;;4960909;28;20089;-52
2023/12/07 08:37:48;;;;;;;10.52;5.60;;;;;;;;;;4959900;28;20051;-54
2023/12/07 08:40:22;;;;;;;14.48;6.57;;;;;;;;;;4965057;28;20503;-55
2023/12/07 08:42:50;;;;;;;11.80;6.47;;;;;;;;;;4961491;28;20054;-53
2023/12/07 08:45:19;;;;;;;10.00;5.70;;;;;;;;;;4960915;28;20399;-54
2023/12/07 08:47:52;;;;;;;9.25;6.07;;;;;;;;;;4965356;28;20059;-59
2023/12/07 08:50:21;;;;;;;8.57;5.43;;;;;;;;;;4965431;28;20105;-59
2023/12/07 08:52:56;;;;;;;9.77;6.45;;;;;;;;;;4956824;28;20059;-59
2023/12/07 08:55:31;;;;;;;9.48;6.10;;;;;;;;;;4962309;28;20054;-56
2023/12/07 08:58:05;;;;;;;14.45;7.50;;;;;;;;;;4964814;28;20146;-59
2023/12/07 09:00:32;;;;;;;;;;;;;;;;;;4961571;28;20133;-57
2023/12/07 09:02:59;;;;;;;10.48;5.93;;;;;;;;;;4967950;28;19925;-59
2023/12/07 09:05:40;;;;;;;10.68;6.45;;;;;;;;;;4985909;28;20055;-67
2023/12/07 09:08:08;;;;;;;11.65;6.30;;;;;;;;;;4982266;28;20054;-66
2023/12/07 09:10:41;;;;;;;13.82;6.97;;;;;;;;;;4982397;28;20152;-66
2023/12/07 09:13:09;;;;;;;11.15;6.38;;;;;;;;;;4984242;28;20041;-66
2023/12/07 09:15:42;;;;;;;9.75;6.15;;;;;;;;;;4980773;28;20077;-70
2023/12/07 09:18:13;;;;;;;9.80;6.38;;;;;;;;;;4980169;28;20754;-58
2023/12/07 09:20:45;;;;;;;13.18;6.40;;;;;;;;;;4987434;28;20460;-56
2023/12/07 09:23:19;;;;;;;11.10;6.63;;;;;;;;;;4985125;28;20054;-53
2023/12/07 09:25:53;;;;;;;12.00;7.13;;;;;;;;;;4982350;28;20062;-56
2023/12/07 09:28:21;;;;;;;9.75;6.30;;;;;;;;;;4981523;28;20073;-59
2023/12/07 09:30:54;;;;;;;11.88;6.47;;;;;;;;;;4979946;28;20057;-58
2023/12/07 09:33:21;;;;;;;;;;;;;;;;;;4982542;28;20121;-58
2023/12/07 09:35:55;;;;;;;11.05;6.60;;;;;;;;;;4984441;28;20263;-59
2023/12/07 09:38:23;;;;;;;12.75;7.18;;;;;;;;;;4982879;28;20548;-57
2023/12/07 09:40:54;;;;;;;10.35;6.72;;;;;;;;;;4984765;28;20054;-58
2023/12/07 09:43:28;;;;;;;12.88;7.47;;;;;;;;;;4981989;28;20742;-55
2023/12/07 09:45:56;;;;;;;;;;;;;;;;;;4980248;28;20058;-67
2023/12/07 09:48:29;;;;;;;14.02;7.75;;;;;;;;;;4982317;28;20555;-66
2023/12/07 09:50:57;;;;;;;12.75;6.90;;;;;;;;;;4982729;28;20043;-67
2023/12/07 09:53:24;;;;;;;13.15;7.10;;;;;;;;;;4981283;28;20058;-67
2023/12/07 09:55:59;;;;;;;13.95;7.25;;;;;;;;;;4979758;28;20130;-66
2023/12/07 09:58:26;;;;;;;;;;;;;;;;;;4985310;28;20056;-66
2023/12/07 10:01:01;;;;;;;11.45;6.88;;;;;;;;;;4979852;28;20182;-58
2023/12/07 10:03:41;;;;;;;12.82;7.78;;;;;;;;;;4979017;28;20051;-59
2023/12/07 10:06:22;;;;;;;14.68;7.82;;;;;;;;;;4981030;28;20283;-55
2023/12/07 10:09:11;;;;;;;11.45;6.82;;;;;;;;;;4981901;28;20428;-58
2023/12/07 10:12:03;;;;;;;12.35;7.82;;;;;;;;;;4984791;28;20058;-69
2023/12/07 10:14:31;;;;;;;11.20;6.47;;;;;;;;;;4985210;28;20112;-66
2023/12/07 10:17:05;;;;;;;12.38;7.13;;;;;;;;;;4978515;28;20583;-67
2023/12/07 10:19:39;;;;;;;14.52;8.50;;;;;;;;;;4984719;28;20058;-66
2023/12/07 10:22:21;;;;;;;12.98;7.65;;;;;;;;;;4980135;28;20136;-67
2023/12/07 10:24:54;;;;;;;12.52;7.78;;;;;;;;;;4980107;28;20398;-67
2023/12/07 10:27:22;;;;;;;12.52;7.47;;;;;;;;;;4981359;28;20109;-67
2023/12/07 10:29:50;;;;;;;13.88;7.57;;;;;;;;;;4984173;28;20590;-60
2023/12/07 10:32:23;;;;;;;13.07;7.30;;;;;;;;;;4982628;28;20054;-60
2023/12/07 10:34:51;;;;;;;13.13;7.10;;;;;;;;;;4977724;28;20057;-58
2023/12/07 10:37:25;;;;;;;9.45;6.43;;;;;;;;;;4982884;28;20054;-60
2023/12/07 10:39:53;;;;;;;13.43;6.80;;;;;;;;;;4977469;28;20426;-59
2023/12/07 10:42:29;;;;;;;12.50;7.32;;;;;;;;;;4979450;28;20502;-60
2023/12/07 10:44:58;;;;;;;10.10;6.35;;;;;;;;;;4982350;28;20054;-58
2023/12/07 10:47:35;;;;;;;10.93;6.03;;;;;;;;;;4979443;28;20532;-61
2023/12/07 10:50:03;;;;;;;11.43;6.80;;;;;;;;;;4980427;28;20050;-58
2023/12/07 10:52:35;;;;;;;11.82;7.13;;;;;;;;;;4983262;28;20054;-59
2023/12/07 10:55:13;;;;;;;9.70;6.50;;;;;;;;;;4978457;28;20061;-60
2023/12/07 10:57:40;;;;;;;12.55;7.20;;;;;;;;;;4977766;28;20056;-48
2023/12/07 11:00:15;;;;;;;9.65;6.50;;;;;;;;;;4980877;28;20449;-49
2023/12/07 11:02:42;;;;;;;;;;;;;;;;;;4982085;28;20105;-52
2023/12/07 11:05:22;;;;;;;10.70;5.80;;;;;;;;;;4979829;28;19925;-49
2023/12/07 11:07:53;;;;;;;9.98;5.93;;;;;;;;;;4980895;28;20062;-61
2023/12/07 11:10:28;;;;;;;;;;;;;;;;;;4984333;28;20109;-57
2023/12/07 11:13:15;;;;;;;9.88;6.13;;;;;;;;;;4979260;28;20256;-70
2023/12/07 11:15:49;;;;;;;12.82;7.07;;;;;;;;;;4974522;28;20061;-70
2023/12/07 11:18:17;;;;;;;10.80;7.30;;;;;;;;;;4980177;28;20054;-71
2023/12/07 11:20:47;;;;;;;10.48;6.57;;;;;;;;;;4984673;28;20047;-70
2023/12/07 11:23:21;;;;;;;11.98;7.75;;;;;;;;;;4978472;28;20062;-70
2023/12/07 11:25:48;;;;;;;;;;;;;;;;;;4985719;28;20060;-60
2023/12/07 11:28:16;;;;;;;12.57;7.15;;;;;;;;;;4978709;28;19922;-62
2023/12/07 11:30:53;;;;;;;12.52;7.78;;;;;;;;;;4977647;28;20046;-62
2023/12/07 11:33:20;;;;;;;12.57;8.32;;;;;;;;;;4981135;28;20047;-61
2023/12/07 11:36:00;;;;;;;11.73;7.72;;;;;;;;;;4984970;28;20093;-60
2023/12/07 11:38:36;;;;;;;12.50;7.72;;;;;;;;;;4982788;28;20061;-70
2023/12/07 11:41:10;;;;;;;13.00;8.02;;;;;;;;;;4981818;28;20074;-62
2023/12/07 11:43:45;;;;;;;12.82;7.57;;;;;;;;;;4979867;28;20050;-60
2023/12/07 11:46:14;;;;;;;15.63;9.02;;;;;;;;;;4980739;28;20052;-61
2023/12/07 11:48:47;;;;;;;13.00;7.90;;;;;;;;;;4974491;28;20565;-61
2023/12/07 11:51:21;;;;;;;15.55;9.10;;;;;;;;;;4984605;28;20078;-61
2023/12/07 11:53:50;;;;;;;;;;;;;;;;;;4981018;28;20046;-60
2023/12/07 11:56:23;;;;;;;14.23;8.82;;;;;;;;;;4977416;28;20247;-57
2023/12/07 11:58:52;;;;;;;13.55;8.32;;;;;;;;;;4976992;28;20317;-59
2023/12/07 12:01:27;;;;;;;15.48;9.23;;;;;;;;;;4980777;28;20185;-58
2023/12/07 12:04:01;;;;;;;15.90;8.68;;;;;;;;;;4979045;28;20061;-60
2023/12/07 12:06:36;;;;;;;14.85;8.75;;;;;;;;;;4978600;28;20081;-59
2023/12/07 12:09:03;;;;;;;;;;;;;;;;;;4984199;28;20588;-51
2023/12/07 12:11:30;;;;;;;15.52;8.77;;;;;;;;;;4975951;28;19930;-53
2023/12/07 12:14:05;;;;;;;15.73;8.30;;;;;;;;;;4973373;28;20078;-56
2023/12/07 12:16:33;;;;;;;14.15;8.85;;;;;;;;;;4983466;28;20544;-50
2023/12/07 12:19:00;;;;;;;17.85;9.52;;;;;;;;;;4979346;28;20569;-52
2023/12/07 12:21:43;;;;;;;14.13;8.70;;;;;;;;;;4983653;28;20062;-51
2023/12/07 12:24:11;;;;;;;14.90;8.63;;;;;;;;;;4989558;28;20402;-58
2023/12/07 12:26:47;;;;;;;14.63;8.27;;;;;;;;;;4985880;28;20053;-55
2023/12/07 12:29:21;;;;;;;16.48;8.98;;;;;;;;;;4981847;28;20072;-55
2023/12/07 12:32:02;;;;;;;15.70;8.45;;;;;;;;;;4989152;28;20137;-59
2023/12/07 12:34:35;;;;;;;16.05;8.45;;;;;;;;;;4986850;28;20046;-70
2023/12/07 12:37:05;;;;;;;18.60;9.48;;;;;;;;;;4984189;28;20307;-51
2023/12/07 12:39:33;;;;;;;14.82;8.68;;;;;;;;;;4980314;28;20484;-50
2023/12/07 12:42:07;;;;;;;13.50;8.45;;;;;;;;;;4983581;28;20058;-54
2023/12/07 12:44:35;;;;;;;16.55;9.23;;;;;;;;;;4981734;28;20078;-50
2023/12/07 12:47:09;;;;;;;14.07;8.57;;;;;;;;;;4985193;28;20806;-54
2023/12/07 12:49:40;;;;;;;15.25;8.80;;;;;;;;;;4981081;28;20058;-54
2023/12/07 12:52:18;;;;;;;15.55;9.70;;;;;;;;;;4977884;28;20120;-57
2023/12/07 12:54:46;;;;;;;15.82;9.32;;;;;;;;;;4983837;28;20177;-60
2023/12/07 12:57:19;;;;;;;15.32;9.07;;;;;;;;;;4984979;28;20132;-58
2023/12/07 12:59:48;;;;;;;;;;;;;;;;;;4980406;28;20606;-59
2023/12/07 13:02:21;;;;;;;21.05;9.35;;;;;;;;;;4982109;28;19941;-53
2023/12/07 13:04:58;;;;;;;16.60;10.20;;;;;;;;;;4979664;28;20489;-52
2023/12/07 13:07:38;;;;;;;16.50;9.88;;;;;;;;;;4983097;28;20509;-52
2023/12/07 13:10:12;;;;;;;16.17;9.00;;;;;;;;;;4980045;28;20050;-50
2023/12/07 13:12:40;;;;;;;;;;;;;;;;;;4981629;28;20081;-53
2023/12/07 13:15:08;;;;;;;16.98;10.32;;;;;;;;;;4985572;28;19976;-55
2023/12/07 13:17:41;;;;;;;17.08;8.65;;;;;;;;;;4980097;28;20830;-51
2023/12/07 13:20:13;;;;;;;;;;;;;;;;;;4985968;28;20472;-67
2023/12/07 13:22:43;;;;;;;17.02;9.93;;;;;;;;;;4983885;28;19972;-67
2023/12/07 13:25:16;;;;;;;18.33;9.90;;;;;;;;;;4979015;28;20421;-67
2023/12/07 13:27:44;;;;;;;16.30;9.70;;;;;;;;;;4979229;28;20695;-67
2023/12/07 13:30:12;;;;;;;;;;;;;;;;;;4983287;28;20058;-51
2023/12/07 13:32:46;;;;;;;17.25;10.05;;;;;;;;;;4983231;28;20439;-60
2023/12/07 13:35:20;;;;;;;15.52;9.32;;;;;;;;;;4979937;28;20477;-58
2023/12/07 13:37:54;;;;;;;14.80;8.77;;;;;;;;;;4983792;28;20054;-58
2023/12/07 13:40:28;;;;;;;15.27;9.15;;;;;;;;;;4980060;28;20058;-58
2023/12/07 13:42:56;;;;;;;15.77;9.70;;;;;;;;;;4982852;28;20441;-58
2023/12/07 13:45:23;;;;;;;22.08;10.27;;;;;;;;;;4983455;28;20101;-59
2023/12/07 13:48:01;;;;;;;21.55;9.18;;;;;;;;;;4982011;28;20144;-54
2023/12/07 13:50:29;;;;;;;17.05;9.07;;;;;;;;;;4980592;28;20608;-61
2023/12/07 13:53:03;;;;;;;17.83;10.02;;;;;;;;;;4983167;28;20050;-61
2023/12/07 13:55:30;;;;;;;16.88;9.68;;;;;;;;;;4978431;28;20525;-61
2023/12/07 13:57:59;;;;;;;16.48;9.93;;;;;;;;;;4982808;28;20287;-61
2023/12/07 14:00:34;;;;;;;18.52;10.48;;;;;;;;;;4986190;28;20056;-50
2023/12/07 14:03:01;;;;;;;17.52;9.60;;;;;;;;;;4982881;28;20395;-55
2023/12/07 14:05:42;;;;;;;16.52;9.65;;;;;;;;;;4980351;28;20073;-56
2023/12/07 14:08:09;;;;;;;16.58;9.43;;;;;;;;;;4985941;28;20057;-52
2023/12/07 14:10:44;;;;;;;16.55;10.18;;;;;;;;;;4979504;28;20058;-51
2023/12/07 14:13:11;;;;;;;;;;;;;;;;;;4979873;28;20506;-50
2023/12/07 14:15:40;;;;;;;15.43;8.32;;;;;;;;;;4984968;28;20064;-50
2023/12/07 14:18:14;;;;;;;18.85;10.18;;;;;;;;;;4984800;28;20054;-66
2023/12/07 14:20:42;;;;;;;20.48;10.38;;;;;;;;;;4982026;28;20815;-67
2023/12/07 14:23:30;;;;;;;20.85;10.68;;;;;;;;;;4980424;28;20053;-67
2023/12/07 14:26:05;;;;;;;21.55;10.57;;;;;;;;;;4981789;28;20096;-67
2023/12/07 14:28:35;;;;;;;19.85;10.88;;;;;;;;;;4980332;28;20137;-59
2023/12/07 14:31:16;;;;;;;20.27;11.30;;;;;;;;;;4980294;28;20245;-55
2023/12/07 14:33:44;;;;;;;19.50;11.55;;;;;;;;;;4981410;28;20207;-56
2023/12/07 14:36:18;;;;;;;17.83;10.30;;;;;;;;;;4982686;28;20046;-57
2023/12/07 14:38:45;;;;;;;20.52;10.57;;;;;;;;;;4981613;28;21613;-60
2023/12/07 14:41:13;;;;;;;;;;;;;;;;;;4981200;28;20046;-57
2023/12/07 14:43:47;;;;;;;20.67;10.25;;;;;;;;;;4978435;28;19922;-56
2023/12/07 14:46:20;;;;;;;22.27;11.02;;;;;;;;;;4978580;28;20054;-54
2023/12/07 14:48:48;;;;;;;21.08;10.57;;;;;;;;;;4984379;28;20050;-48
2023/12/07 14:51:20;;;;;;;22.67;10.85;;;;;;;;;;4965935;28;20422;-51
2023/12/07 14:53:54;;;;;;;22.27;11.38;;;;;;;;;;4980591;28;20112;-49
2023/12/07 14:56:22;;;;;;;;;;;;;;;;;;4979570;28;20046;-60
2023/12/07 14:58:49;;;;;;;21.48;11.05;;;;;;;;;;4983505;28;21163;-70
2023/12/07 15:01:24;;;;;;;21.92;11.32;;;;;;;;;;4983524;28;20050;-70
2023/12/07 15:03:51;;;;;;;;;;;;;;;;;;4981527;28;20081;-68
2023/12/07 15:06:31;;;;;;;18.13;9.93;;;;;;;;;;4987599;28;20300;-70
2023/12/07 15:08:59;;;;;;;23.80;11.23;;;;;;;;;;4974473;28;20148;-70
2023/12/07 15:11:32;;;;;;;25.63;11.70;;;;;;;;;;4979649;28;20053;-69
2023/12/07 15:14:00;;;;;;;;;;;;;;;;;;4985373;28;20054;-51
2023/12/07 15:16:27;;;;;;;24.35;11.15;;;;;;;;;;4981320;28;19933;-49
2023/12/07 15:19:01;;;;;;;22.25;10.90;;;;;;;;;;4976231;28;20645;-48
2023/12/07 15:21:29;;;;;;;24.20;11.68;;;;;;;;;;4983555;28;20125;-54
2023/12/07 15:24:03;;;;;;;25.77;11.93;;;;;;;;;;4978547;28;20057;-48
2023/12/07 15:26:30;;;;;;;30.20;12.90;;;;;;;;;;4980057;28;20054;-56
2023/12/07 15:28:57;;;;;;;27.77;12.40;;;;;;;;;;4977412;28;20053;-48
2023/12/07 15:31:32;;;;;;;28.38;12.10;;;;;;;;;;4980180;28;20116;-49
2023/12/07 15:33:59;;;;;;;26.92;12.55;;;;;;;;;;4981042;28;20501;-53
2023/12/07 15:36:27;;;;;;;25.27;11.32;;;;;;;;;;4982526;28;20414;-51
2023/12/07 15:39:01;;;;;;;28.63;11.60;;;;;;;;;;4982304;28;20139;-48
2023/12/07 15:41:28;;;;;;;27.63;12.30;;;;;;;;;;4979549;28;20062;-51
2023/12/07 15:43:55;;;;;;;27.23;12.57;;;;;;;;;;4981502;28;20544;-60
2023/12/07 15:46:30;;;;;;;25.38;13.02;;;;;;;;;;4980104;28;20065;-59